Concord, Indiana
Current Conditions -  °F | °C
As of 2:50 PM on Wednesday 28 Jan 2015 (Local Time) from KEKM Reporting Station
Clear Clear  
Wind Chill: 21°   Ceiling: Unl
Heat Index: 30°   Visibility: 10mi
Dew Point:   Wind: 10mph
Humidity: 29%   Direction: 150°SSE
Pressure: 30.22"   Gusts: NA
Location:  41.6236°N, 85.9974°W
Report Text: KEKM 281950Z 15009KT 10SM SKC M01/M17 A3022 RMK A02
Loading
Personal Weather Stations






























Interactive Weather Map New forecast layout! Learn more

10-Day Weather Forecast

Advertisements
Track Severe Weather on mobile